sensor_id;sensor_type;location;lat;lon;timestamp;temperature;humidity
10030;DHT22;5055;52.054;8.524;2023-11-19T00:00:18;8.90;97.00
10030;DHT22;5055;52.054;8.524;2023-11-19T00:02:46;8.90;97.00
10030;DHT22;5055;52.054;8.524;2023-11-19T00:05:15;8.90;97.00
10030;DHT22;5055;52.054;8.524;2023-11-19T00:07:44;9.00;97.00
10030;DHT22;5055;52.054;8.524;2023-11-19T00:10:14;9.00;97.00
10030;DHT22;5055;52.054;8.524;2023-11-19T00:12:46;9.00;97.00
10030;DHT22;5055;52.054;8.524;2023-11-19T00:15:15;9.10;97.00
10030;DHT22;5055;52.054;8.524;2023-11-19T00:17:47;9.10;97.00
10030;DHT22;5055;52.054;8.524;2023-11-19T00:20:18;9.10;97.00
10030;DHT22;5055;52.054;8.524;2023-11-19T00:22:46;9.10;97.00
10030;DHT22;5055;52.054;8.524;2023-11-19T00:25:19;9.20;97.00
10030;DHT22;5055;52.054;8.524;2023-11-19T00:27:48;9.20;97.00
10030;DHT22;5055;52.054;8.524;2023-11-19T00:30:18;9.30;97.00
10030;DHT22;5055;52.054;8.524;2023-11-19T00:32:47;9.30;97.00
10030;DHT22;5055;52.054;8.524;2023-11-19T00:35:16;9.30;97.00
10030;DHT22;5055;52.054;8.524;2023-11-19T00:37:44;9.30;97.00
10030;DHT22;5055;52.054;8.524;2023-11-19T00:40:14;9.40;97.00
10030;DHT22;5055;52.054;8.524;2023-11-19T00:42:45;9.40;97.00
10030;DHT22;5055;52.054;8.524;2023-11-19T00:45:14;9.40;97.00
10030;DHT22;5055;52.054;8.524;2023-11-19T00:47:43;9.40;97.00
10030;DHT22;5055;52.054;8.524;2023-11-19T00:50:12;9.40;97.00
10030;DHT22;5055;52.054;8.524;2023-11-19T00:52:40;9.50;97.00
10030;DHT22;5055;52.054;8.524;2023-11-19T00:55:09;9.50;97.00
10030;DHT22;5055;52.054;8.524;2023-11-19T00:57:38;9.60;97.00
10030;DHT22;5055;52.054;8.524;2023-11-19T01:00:07;9.70;97.00
10030;DHT22;5055;52.054;8.524;2023-11-19T01:02:46;9.80;97.00
10030;DHT22;5055;52.054;8.524;2023-11-19T01:05:19;9.80;97.00
10030;DHT22;5055;52.054;8.524;2023-11-19T01:07:50;9.80;97.00
10030;DHT22;5055;52.054;8.524;2023-11-19T01:10:21;9.90;97.00
10030;DHT22;5055;52.054;8.524;2023-11-19T01:12:49;9.90;97.00
10030;DHT22;5055;52.054;8.524;2023-11-19T01:15:17;9.90;97.00
10030;DHT22;5055;52.054;8.524;2023-11-19T01:17:46;10.00;97.00
10030;DHT22;5055;52.054;8.524;2023-11-19T01:20:19;10.00;97.00
10030;DHT22;5055;52.054;8.524;2023-11-19T01:22:49;10.00;97.00
10030;DHT22;5055;52.054;8.524;2023-11-19T01:25:16;10.00;97.00
10030;DHT22;5055;52.054;8.524;2023-11-19T01:27:44;10.00;97.00
10030;DHT22;5055;52.054;8.524;2023-11-19T01:30:13;10.10;97.00
10030;DHT22;5055;52.054;8.524;2023-11-19T01:32:41;10.10;97.00
10030;DHT22;5055;52.054;8.524;2023-11-19T01:35:09;10.10;97.00
10030;DHT22;5055;52.054;8.524;2023-11-19T01:37:39;10.20;97.00
10030;DHT22;5055;52.054;8.524;2023-11-19T01:40:08;10.20;97.00
10030;DHT22;5055;52.054;8.524;2023-11-19T01:42:38;10.20;97.00
10030;DHT22;5055;52.054;8.524;2023-11-19T01:45:07;10.30;97.00
10030;DHT22;5055;52.054;8.524;2023-11-19T01:47:37;10.30;97.00
10030;DHT22;5055;52.054;8.524;2023-11-19T01:50:07;10.30;97.00
10030;DHT22;5055;52.054;8.524;2023-11-19T01:52:36;10.40;97.00
10030;DHT22;5055;52.054;8.524;2023-11-19T01:55:08;10.50;97.00
10030;DHT22;5055;52.054;8.524;2023-11-19T01:57:37;10.50;97.00
10030;DHT22;5055;52.054;8.524;2023-11-19T02:00:09;10.50;97.00
10030;DHT22;5055;52.054;8.524;2023-11-19T02:02:39;10.50;97.00
10030;DHT22;5055;52.054;8.524;2023-11-19T02:05:09;10.50;97.00
10030;DHT22;5055;52.054;8.524;2023-11-19T02:07:37;10.60;97.00
10030;DHT22;5055;52.054;8.524;2023-11-19T02:10:07;10.60;97.00
10030;DHT22;5055;52.054;8.524;2023-11-19T02:12:40;10.60;97.00
10030;DHT22;5055;52.054;8.524;2023-11-19T02:15:11;10.60;97.00
10030;DHT22;5055;52.054;8.524;2023-11-19T02:17:39;10.60;97.00
10030;DHT22;5055;52.054;8.524;2023-11-19T02:20:08;10.70;97.00
10030;DHT22;5055;52.054;8.524;2023-11-19T02:22:39;10.70;97.00
10030;DHT22;5055;52.054;8.524;2023-11-19T02:25:27;10.70;97.00
10030;DHT22;5055;52.054;8.524;2023-11-19T02:27:59;10.70;97.00
10030;DHT22;5055;52.054;8.524;2023-11-19T02:30:28;10.80;97.00
10030;DHT22;5055;52.054;8.524;2023-11-19T02:32:56;10.80;97.00
10030;DHT22;5055;52.054;8.524;2023-11-19T02:35:25;10.80;97.00
10030;DHT22;5055;52.054;8.524;2023-11-19T02:37:54;10.90;97.00
10030;DHT22;5055;52.054;8.524;2023-11-19T02:40:23;11.00;97.00
10030;DHT22;5055;52.054;8.524;2023-11-19T02:42:52;11.10;97.00
10030;DHT22;5055;52.054;8.524;2023-11-19T02:45:22;11.10;97.00
10030;DHT22;5055;52.054;8.524;2023-11-19T02:47:51;11.20;97.00
10030;DHT22;5055;52.054;8.524;2023-11-19T02:50:20;11.20;97.00
10030;DHT22;5055;52.054;8.524;2023-11-19T02:52:53;11.20;97.00
10030;DHT22;5055;52.054;8.524;2023-11-19T02:55:24;11.20;97.00
10030;DHT22;5055;52.054;8.524;2023-11-19T02:57:54;11.20;97.00
10030;DHT22;5055;52.054;8.524;2023-11-19T03:00:27;11.20;97.00
10030;DHT22;5055;52.054;8.524;2023-11-19T03:03:02;11.20;97.00
10030;DHT22;5055;52.054;8.524;2023-11-19T03:05:45;11.20;97.00
10030;DHT22;5055;52.054;8.524;2023-11-19T03:08:14;11.30;97.00
10030;DHT22;5055;52.054;8.524;2023-11-19T03:10:45;11.30;97.00
10030;DHT22;5055;52.054;8.524;2023-11-19T03:13:14;11.40;97.00
10030;DHT22;5055;52.054;8.524;2023-11-19T03:15:44;11.40;97.00
10030;DHT22;5055;52.054;8.524;2023-11-19T03:18:12;11.40;97.00
10030;DHT22;5055;52.054;8.524;2023-11-19T03:20:40;11.50;97.00
10030;DHT22;5055;52.054;8.524;2023-11-19T03:23:08;11.50;97.00
10030;DHT22;5055;52.054;8.524;2023-11-19T03:25:37;11.50;97.00
10030;DHT22;5055;52.054;8.524;2023-11-19T03:28:05;11.60;97.00
10030;DHT22;5055;52.054;8.524;2023-11-19T03:30:35;11.60;97.00
10030;DHT22;5055;52.054;8.524;2023-11-19T03:33:04;11.60;97.00
10030;DHT22;5055;52.054;8.524;2023-11-19T03:35:33;11.70;97.00
10030;DHT22;5055;52.054;8.524;2023-11-19T03:38:02;11.70;97.00
10030;DHT22;5055;52.054;8.524;2023-11-19T03:40:30;11.70;97.00
10030;DHT22;5055;52.054;8.524;2023-11-19T03:42:58;11.80;97.00
10030;DHT22;5055;52.054;8.524;2023-11-19T03:45:26;11.80;97.00
10030;DHT22;5055;52.054;8.524;2023-11-19T03:47:54;11.80;97.00
10030;DHT22;5055;52.054;8.524;2023-11-19T03:50:22;11.90;97.00
10030;DHT22;5055;52.054;8.524;2023-11-19T03:52:51;11.90;97.00
10030;DHT22;5055;52.054;8.524;2023-11-19T03:55:19;11.90;97.00
10030;DHT22;5055;52.054;8.524;2023-11-19T03:57:47;11.90;97.00
10030;DHT22;5055;52.054;8.524;2023-11-19T04:00:16;11.90;97.00
10030;DHT22;5055;52.054;8.524;2023-11-19T04:02:44;11.90;97.00
10030;DHT22;5055;52.054;8.524;2023-11-19T04:05:14;12.00;97.00
10030;DHT22;5055;52.054;8.524;2023-11-19T04:07:43;12.00;97.00
10030;DHT22;5055;52.054;8.524;2023-11-19T04:10:11;12.00;97.00
10030;DHT22;5055;52.054;8.524;2023-11-19T04:12:42;12.10;97.00
10030;DHT22;5055;52.054;8.524;2023-11-19T04:15:11;12.10;97.00
10030;DHT22;5055;52.054;8.524;2023-11-19T04:17:40;12.10;97.00
10030;DHT22;5055;52.054;8.524;2023-11-19T04:20:08;12.20;97.00
10030;DHT22;5055;52.054;8.524;2023-11-19T04:22:39;12.30;97.00
10030;DHT22;5055;52.054;8.524;2023-11-19T04:25:09;12.30;97.00
10030;DHT22;5055;52.054;8.524;2023-11-19T04:27:38;12.30;97.00
10030;DHT22;5055;52.054;8.524;2023-11-19T04:30:07;12.30;97.00
10030;DHT22;5055;52.054;8.524;2023-11-19T04:32:38;12.30;97.00
10030;DHT22;5055;52.054;8.524;2023-11-19T04:35:07;12.30;97.00
10030;DHT22;5055;52.054;8.524;2023-11-19T04:37:36;12.30;97.00
10030;DHT22;5055;52.054;8.524;2023-11-19T04:40:06;12.30;97.00
10030;DHT22;5055;52.054;8.524;2023-11-19T04:42:36;12.40;97.00
10030;DHT22;5055;52.054;8.524;2023-11-19T04:45:05;12.40;97.00
10030;DHT22;5055;52.054;8.524;2023-11-19T04:47:34;12.40;97.00
10030;DHT22;5055;52.054;8.524;2023-11-19T04:50:02;12.40;97.00
10030;DHT22;5055;52.054;8.524;2023-11-19T04:52:31;12.40;97.00
10030;DHT22;5055;52.054;8.524;2023-11-19T04:54:59;12.40;97.00
10030;DHT22;5055;52.054;8.524;2023-11-19T04:57:27;12.40;97.00
10030;DHT22;5055;52.054;8.524;2023-11-19T04:59:58;12.40;97.00
10030;DHT22;5055;52.054;8.524;2023-11-19T05:02:26;12.40;97.00
10030;DHT22;5055;52.054;8.524;2023-11-19T05:04:55;12.40;97.00
10030;DHT22;5055;52.054;8.524;2023-11-19T05:07:23;12.40;97.00
10030;DHT22;5055;52.054;8.524;2023-11-19T05:09:53;12.40;97.00
10030;DHT22;5055;52.054;8.524;2023-11-19T05:12:21;12.40;97.00
10030;DHT22;5055;52.054;8.524;2023-11-19T05:14:49;12.40;97.00
10030;DHT22;5055;52.054;8.524;2023-11-19T05:17:19;12.40;97.00
10030;DHT22;5055;52.054;8.524;2023-11-19T05:19:47;12.40;97.00
10030;DHT22;5055;52.054;8.524;2023-11-19T05:22:15;12.40;97.00
10030;DHT22;5055;52.054;8.524;2023-11-19T05:24:43;12.40;97.00
10030;DHT22;5055;52.054;8.524;2023-11-19T05:27:12;12.40;97.00
10030;DHT22;5055;52.054;8.524;2023-11-19T05:29:40;12.40;97.00
10030;DHT22;5055;52.054;8.524;2023-11-19T05:32:09;12.40;97.00
10030;DHT22;5055;52.054;8.524;2023-11-19T05:34:39;12.40;97.00
10030;DHT22;5055;52.054;8.524;2023-11-19T05:37:11;12.40;97.00
10030;DHT22;5055;52.054;8.524;2023-11-19T05:39:39;12.30;97.00
10030;DHT22;5055;52.054;8.524;2023-11-19T05:42:07;12.30;97.00
10030;DHT22;5055;52.054;8.524;2023-11-19T05:44:36;12.30;97.00
10030;DHT22;5055;52.054;8.524;2023-11-19T05:47:07;12.30;97.00
10030;DHT22;5055;52.054;8.524;2023-11-19T05:49:36;12.30;97.00
10030;DHT22;5055;52.054;8.524;2023-11-19T05:52:06;12.20;97.00
10030;DHT22;5055;52.054;8.524;2023-11-19T05:54:36;12.20;97.00
10030;DHT22;5055;52.054;8.524;2023-11-19T05:57:06;12.10;97.00
10030;DHT22;5055;52.054;8.524;2023-11-19T05:59:36;12.10;97.00
10030;DHT22;5055;52.054;8.524;2023-11-19T06:02:04;12.10;97.00
10030;DHT22;5055;52.054;8.524;2023-11-19T06:04:32;12.10;97.00
10030;DHT22;5055;52.054;8.524;2023-11-19T06:07:01;12.10;97.00
10030;DHT22;5055;52.054;8.524;2023-11-19T06:09:31;12.10;97.00
10030;DHT22;5055;52.054;8.524;2023-11-19T06:12:00;12.10;97.00
10030;DHT22;5055;52.054;8.524;2023-11-19T06:14:30;12.10;97.00
10030;DHT22;5055;52.054;8.524;2023-11-19T06:16:58;12.10;97.00
10030;DHT22;5055;52.054;8.524;2023-11-19T06:19:27;12.10;97.00
10030;DHT22;5055;52.054;8.524;2023-11-19T06:21:56;12.10;97.00
10030;DHT22;5055;52.054;8.524;2023-11-19T06:24:25;12.10;97.00
10030;DHT22;5055;52.054;8.524;2023-11-19T06:26:54;12.00;97.00
10030;DHT22;5055;52.054;8.524;2023-11-19T06:29:22;12.00;97.00
10030;DHT22;5055;52.054;8.524;2023-11-19T06:31:51;12.00;97.00
10030;DHT22;5055;52.054;8.524;2023-11-19T06:34:19;12.00;97.00
10030;DHT22;5055;52.054;8.524;2023-11-19T06:36:47;11.90;97.00
10030;DHT22;5055;52.054;8.524;2023-11-19T06:39:15;11.90;97.00
10030;DHT22;5055;52.054;8.524;2023-11-19T06:41:45;11.90;97.00
10030;DHT22;5055;52.054;8.524;2023-11-19T06:44:14;11.90;97.00
10030;DHT22;5055;52.054;8.524;2023-11-19T06:46:42;11.90;97.00
10030;DHT22;5055;52.054;8.524;2023-11-19T06:49:11;11.90;97.00
10030;DHT22;5055;52.054;8.524;2023-11-19T06:51:41;12.00;97.00
10030;DHT22;5055;52.054;8.524;2023-11-19T06:54:10;12.00;97.00
10030;DHT22;5055;52.054;8.524;2023-11-19T06:56:39;12.00;97.00
10030;DHT22;5055;52.054;8.524;2023-11-19T06:59:08;12.00;97.00
10030;DHT22;5055;52.054;8.524;2023-11-19T07:01:38;11.90;97.00
10030;DHT22;5055;52.054;8.524;2023-11-19T07:04:06;11.90;97.00
10030;DHT22;5055;52.054;8.524;2023-11-19T07:06:36;12.00;97.00
10030;DHT22;5055;52.054;8.524;2023-11-19T07:09:04;12.00;97.00
10030;DHT22;5055;52.054;8.524;2023-11-19T07:11:37;11.90;97.00
10030;DHT22;5055;52.054;8.524;2023-11-19T07:14:06;11.90;97.00
10030;DHT22;5055;52.054;8.524;2023-11-19T07:16:34;11.90;97.00
10030;DHT22;5055;52.054;8.524;2023-11-19T07:19:05;11.90;97.00
10030;DHT22;5055;52.054;8.524;2023-11-19T07:21:34;12.00;97.00
10030;DHT22;5055;52.054;8.524;2023-11-19T07:24:06;12.00;97.00
10030;DHT22;5055;52.054;8.524;2023-11-19T07:26:34;12.00;97.00
10030;DHT22;5055;52.054;8.524;2023-11-19T07:29:04;12.00;97.00
10030;DHT22;5055;52.054;8.524;2023-11-19T07:31:34;12.00;97.00
10030;DHT22;5055;52.054;8.524;2023-11-19T07:34:02;12.00;97.00
10030;DHT22;5055;52.054;8.524;2023-11-19T07:36:33;12.00;97.00
10030;DHT22;5055;52.054;8.524;2023-11-19T07:39:03;12.00;97.00
10030;DHT22;5055;52.054;8.524;2023-11-19T07:41:32;12.00;97.00
10030;DHT22;5055;52.054;8.524;2023-11-19T07:44:00;12.00;97.00
10030;DHT22;5055;52.054;8.524;2023-11-19T07:46:28;12.00;97.00
10030;DHT22;5055;52.054;8.524;2023-11-19T07:48:57;12.00;97.00
10030;DHT22;5055;52.054;8.524;2023-11-19T07:51:25;12.00;97.00
10030;DHT22;5055;52.054;8.524;2023-11-19T07:53:54;12.00;97.00
10030;DHT22;5055;52.054;8.524;2023-11-19T07:56:23;12.00;97.00
10030;DHT22;5055;52.054;8.524;2023-11-19T07:58:51;12.00;97.00
10030;DHT22;5055;52.054;8.524;2023-11-19T08:01:19;12.00;97.00
10030;DHT22;5055;52.054;8.524;2023-11-19T08:03:47;12.00;97.00
10030;DHT22;5055;52.054;8.524;2023-11-19T08:06:18;12.00;97.00
10030;DHT22;5055;52.054;8.524;2023-11-19T08:08:47;12.00;97.00
10030;DHT22;5055;52.054;8.524;2023-11-19T08:11:17;12.00;97.00
10030;DHT22;5055;52.054;8.524;2023-11-19T08:13:47;11.90;97.00
10030;DHT22;5055;52.054;8.524;2023-11-19T08:16:15;11.90;97.00
10030;DHT22;5055;52.054;8.524;2023-11-19T08:18:43;11.90;97.00
10030;DHT22;5055;52.054;8.524;2023-11-19T08:21:12;11.90;97.00
10030;DHT22;5055;52.054;8.524;2023-11-19T08:23:40;12.00;97.00
10030;DHT22;5055;52.054;8.524;2023-11-19T08:26:08;12.00;97.00
10030;DHT22;5055;52.054;8.524;2023-11-19T08:28:38;12.00;97.00
10030;DHT22;5055;52.054;8.524;2023-11-19T08:31:06;12.00;97.00
10030;DHT22;5055;52.054;8.524;2023-11-19T08:33:34;12.00;97.00
10030;DHT22;5055;52.054;8.524;2023-11-19T08:36:03;12.10;97.00
10030;DHT22;5055;52.054;8.524;2023-11-19T08:38:31;12.10;97.00
10030;DHT22;5055;52.054;8.524;2023-11-19T08:41:00;12.20;97.00
10030;DHT22;5055;52.054;8.524;2023-11-19T08:43:28;12.30;97.00
10030;DHT22;5055;52.054;8.524;2023-11-19T08:46:00;12.30;97.00
10030;DHT22;5055;52.054;8.524;2023-11-19T08:48:28;12.30;97.00
10030;DHT22;5055;52.054;8.524;2023-11-19T08:50:56;12.20;97.00
10030;DHT22;5055;52.054;8.524;2023-11-19T08:53:24;12.20;97.00
10030;DHT22;5055;52.054;8.524;2023-11-19T08:55:52;12.20;97.00
10030;DHT22;5055;52.054;8.524;2023-11-19T08:58:21;12.10;97.00
10030;DHT22;5055;52.054;8.524;2023-11-19T09:00:51;12.20;97.00
10030;DHT22;5055;52.054;8.524;2023-11-19T09:03:21;12.20;97.00
10030;DHT22;5055;52.054;8.524;2023-11-19T09:05:49;12.20;97.00
10030;DHT22;5055;52.054;8.524;2023-11-19T09:08:18;12.10;97.00
10030;DHT22;5055;52.054;8.524;2023-11-19T09:10:46;12.10;97.00
10030;DHT22;5055;52.054;8.524;2023-11-19T09:13:15;12.10;97.00
10030;DHT22;5055;52.054;8.524;2023-11-19T09:15:49;12.20;97.00
10030;DHT22;5055;52.054;8.524;2023-11-19T09:18:31;12.20;97.00
10030;DHT22;5055;52.054;8.524;2023-11-19T09:21:17;12.30;97.00
10030;DHT22;5055;52.054;8.524;2023-11-19T09:23:48;12.20;97.00
10030;DHT22;5055;52.054;8.524;2023-11-19T09:26:17;12.20;97.00
10030;DHT22;5055;52.054;8.524;2023-11-19T09:28:45;12.20;97.00
10030;DHT22;5055;52.054;8.524;2023-11-19T09:31:16;12.20;97.00
10030;DHT22;5055;52.054;8.524;2023-11-19T09:33:56;12.10;97.00
10030;DHT22;5055;52.054;8.524;2023-11-19T09:36:29;12.20;97.00
10030;DHT22;5055;52.054;8.524;2023-11-19T09:39:13;12.20;97.00
10030;DHT22;5055;52.054;8.524;2023-11-19T09:41:57;12.20;97.00
10030;DHT22;5055;52.054;8.524;2023-11-19T09:44:27;12.30;97.00
10030;DHT22;5055;52.054;8.524;2023-11-19T09:47:19;12.30;97.00
10030;DHT22;5055;52.054;8.524;2023-11-19T09:50:19;12.30;97.00
10030;DHT22;5055;52.054;8.524;2023-11-19T09:53:00;12.30;97.00
10030;DHT22;5055;52.054;8.524;2023-11-19T09:55:30;12.30;97.00
10030;DHT22;5055;52.054;8.524;2023-11-19T09:58:27;12.40;97.00
10030;DHT22;5055;52.054;8.524;2023-11-19T10:01:24;12.40;97.00
10030;DHT22;5055;52.054;8.524;2023-11-19T10:04:07;12.40;97.00
10030;DHT22;5055;52.054;8.524;2023-11-19T10:06:37;12.40;97.00
10030;DHT22;5055;52.054;8.524;2023-11-19T10:09:05;12.30;97.00
10030;DHT22;5055;52.054;8.524;2023-11-19T10:11:33;12.30;97.00
10030;DHT22;5055;52.054;8.524;2023-11-19T10:14:02;12.30;97.00
10030;DHT22;5055;52.054;8.524;2023-11-19T10:16:31;12.40;97.00
10030;DHT22;5055;52.054;8.524;2023-11-19T10:18:59;12.40;97.00
10030;DHT22;5055;52.054;8.524;2023-11-19T10:21:32;12.50;97.00
10030;DHT22;5055;52.054;8.524;2023-11-19T10:24:02;12.50;97.00
10030;DHT22;5055;52.054;8.524;2023-11-19T10:26:31;12.60;97.00
10030;DHT22;5055;52.054;8.524;2023-11-19T10:29:01;12.60;97.00
10030;DHT22;5055;52.054;8.524;2023-11-19T10:31:29;12.70;97.00
10030;DHT22;5055;52.054;8.524;2023-11-19T10:33:57;12.70;97.00
10030;DHT22;5055;52.054;8.524;2023-11-19T10:36:37;12.70;97.00
10030;DHT22;5055;52.054;8.524;2023-11-19T10:39:09;12.80;97.00
10030;DHT22;5055;52.054;8.524;2023-11-19T10:41:37;12.80;97.00
10030;DHT22;5055;52.054;8.524;2023-11-19T10:44:34;12.80;97.00
10030;DHT22;5055;52.054;8.524;2023-11-19T10:47:06;12.80;97.00
10030;DHT22;5055;52.054;8.524;2023-11-19T10:49:36;12.80;97.00
10030;DHT22;5055;52.054;8.524;2023-11-19T10:52:08;12.80;97.00
10030;DHT22;5055;52.054;8.524;2023-11-19T10:54:57;12.80;97.00
10030;DHT22;5055;52.054;8.524;2023-11-19T10:57:43;12.80;97.00
10030;DHT22;5055;52.054;8.524;2023-11-19T11:00:17;12.80;97.00
10030;DHT22;5055;52.054;8.524;2023-11-19T11:02:50;12.80;97.00
10030;DHT22;5055;52.054;8.524;2023-11-19T11:05:22;12.80;97.00
10030;DHT22;5055;52.054;8.524;2023-11-19T11:07:55;12.80;97.00
10030;DHT22;5055;52.054;8.524;2023-11-19T11:17:03;12.80;97.00
10030;DHT22;5055;52.054;8.524;2023-11-19T11:19:34;12.80;97.00
10030;DHT22;5055;52.054;8.524;2023-11-19T11:22:06;12.80;97.00
10030;DHT22;5055;52.054;8.524;2023-11-19T11:25:22;12.70;97.00
10030;DHT22;5055;52.054;8.524;2023-11-19T11:28:03;12.70;97.00
10030;DHT22;5055;52.054;8.524;2023-11-19T11:30:43;12.60;97.00
10030;DHT22;5055;52.054;8.524;2023-11-19T11:33:26;12.50;97.00
10030;DHT22;5055;52.054;8.524;2023-11-19T11:36:05;12.40;97.00
10030;DHT22;5055;52.054;8.524;2023-11-19T11:39:39;12.40;97.00
10030;DHT22;5055;52.054;8.524;2023-11-19T11:42:34;12.40;97.00
10030;DHT22;5055;52.054;8.524;2023-11-19T11:45:17;12.40;97.00
10030;DHT22;5055;52.054;8.524;2023-11-19T11:48:09;12.50;97.00
10030;DHT22;5055;52.054;8.524;2023-11-19T11:53:58;12.60;97.00
10030;DHT22;5055;52.054;8.524;2023-11-19T11:57:01;12.70;97.00
10030;DHT22;5055;52.054;8.524;2023-11-19T11:59:47;12.60;97.00
10030;DHT22;5055;52.054;8.524;2023-11-19T12:02:20;12.40;97.00
10030;DHT22;5055;52.054;8.524;2023-11-19T12:05:07;12.20;97.00
10030;DHT22;5055;52.054;8.524;2023-11-19T12:08:00;12.00;97.00
10030;DHT22;5055;52.054;8.524;2023-11-19T12:10:45;11.90;97.00
10030;DHT22;5055;52.054;8.524;2023-11-19T12:13:21;11.70;97.00
10030;DHT22;5055;52.054;8.524;2023-11-19T12:16:07;11.80;97.00
10030;DHT22;5055;52.054;8.524;2023-11-19T12:18:36;11.90;97.00
10030;DHT22;5055;52.054;8.524;2023-11-19T12:21:27;11.90;97.00
10030;DHT22;5055;52.054;8.524;2023-11-19T12:23:58;11.90;97.00
10030;DHT22;5055;52.054;8.524;2023-11-19T12:26:37;11.90;97.00
10030;DHT22;5055;52.054;8.524;2023-11-19T12:29:06;11.80;97.00
10030;DHT22;5055;52.054;8.524;2023-11-19T12:31:36;11.80;97.00
10030;DHT22;5055;52.054;8.524;2023-11-19T12:34:08;11.80;97.00
10030;DHT22;5055;52.054;8.524;2023-11-19T12:36:40;11.80;97.00
10030;DHT22;5055;52.054;8.524;2023-11-19T12:39:18;11.80;97.00
10030;DHT22;5055;52.054;8.524;2023-11-19T12:41:52;11.90;97.00
10030;DHT22;5055;52.054;8.524;2023-11-19T12:44:21;12.00;97.00
10030;DHT22;5055;52.054;8.524;2023-11-19T12:47:03;12.00;97.00
10030;DHT22;5055;52.054;8.524;2023-11-19T12:49:34;12.10;97.00
10030;DHT22;5055;52.054;8.524;2023-11-19T12:52:12;12.20;97.00
10030;DHT22;5055;52.054;8.524;2023-11-19T12:54:40;12.30;97.00
10030;DHT22;5055;52.054;8.524;2023-11-19T12:57:10;12.30;97.00
10030;DHT22;5055;52.054;8.524;2023-11-19T12:59:38;12.30;97.00
10030;DHT22;5055;52.054;8.524;2023-11-19T13:02:06;12.30;97.00
10030;DHT22;5055;52.054;8.524;2023-11-19T13:04:35;12.30;97.00
10030;DHT22;5055;52.054;8.524;2023-11-19T13:07:21;12.30;97.00
10030;DHT22;5055;52.054;8.524;2023-11-19T13:09:51;12.30;97.00
10030;DHT22;5055;52.054;8.524;2023-11-19T13:12:30;12.40;97.00
10030;DHT22;5055;52.054;8.524;2023-11-19T13:14:58;12.40;97.00
10030;DHT22;5055;52.054;8.524;2023-11-19T13:17:30;12.40;97.00
10030;DHT22;5055;52.054;8.524;2023-11-19T13:19:58;12.40;97.00
10030;DHT22;5055;52.054;8.524;2023-11-19T13:22:26;12.40;97.00
10030;DHT22;5055;52.054;8.524;2023-11-19T13:24:54;12.40;97.00
10030;DHT22;5055;52.054;8.524;2023-11-19T13:27:23;12.40;97.00
10030;DHT22;5055;52.054;8.524;2023-11-19T13:29:53;12.40;97.00
10030;DHT22;5055;52.054;8.524;2023-11-19T13:32:21;12.50;97.00
10030;DHT22;5055;52.054;8.524;2023-11-19T13:34:49;12.50;97.00
10030;DHT22;5055;52.054;8.524;2023-11-19T13:37:18;12.60;97.00
10030;DHT22;5055;52.054;8.524;2023-11-19T13:39:46;12.70;97.00
10030;DHT22;5055;52.054;8.524;2023-11-19T13:42:16;12.70;97.00
10030;DHT22;5055;52.054;8.524;2023-11-19T13:44:44;12.90;97.00
10030;DHT22;5055;52.054;8.524;2023-11-19T13:47:14;13.30;97.00
10030;DHT22;5055;52.054;8.524;2023-11-19T13:49:44;13.70;97.00
10030;DHT22;5055;52.054;8.524;2023-11-19T13:52:12;14.00;97.00
10030;DHT22;5055;52.054;8.524;2023-11-19T13:54:41;14.20;97.00
10030;DHT22;5055;52.054;8.524;2023-11-19T13:57:09;14.10;97.00
10030;DHT22;5055;52.054;8.524;2023-11-19T13:59:39;14.10;97.00
10030;DHT22;5055;52.054;8.524;2023-11-19T14:02:08;13.90;97.00
10030;DHT22;5055;52.054;8.524;2023-11-19T14:04:38;13.80;97.00
10030;DHT22;5055;52.054;8.524;2023-11-19T14:07:06;13.50;97.00
10030;DHT22;5055;52.054;8.524;2023-11-19T14:09:34;13.20;97.00
10030;DHT22;5055;52.054;8.524;2023-11-19T14:12:04;13.00;97.00
10030;DHT22;5055;52.054;8.524;2023-11-19T14:14:33;12.90;97.00
10030;DHT22;5055;52.054;8.524;2023-11-19T14:17:01;12.80;97.00
10030;DHT22;5055;52.054;8.524;2023-11-19T14:19:33;12.70;97.00
10030;DHT22;5055;52.054;8.524;2023-11-19T14:22:03;12.60;97.00
10030;DHT22;5055;52.054;8.524;2023-11-19T14:24:31;12.50;97.00
10030;DHT22;5055;52.054;8.524;2023-11-19T14:26:59;12.50;97.00
10030;DHT22;5055;52.054;8.524;2023-11-19T14:29:28;12.50;97.00
10030;DHT22;5055;52.054;8.524;2023-11-19T14:31:56;12.40;97.00
10030;DHT22;5055;52.054;8.524;2023-11-19T14:34:25;12.40;97.00
10030;DHT22;5055;52.054;8.524;2023-11-19T14:36:54;12.40;97.00
10030;DHT22;5055;52.054;8.524;2023-11-19T14:39:23;12.40;97.00
10030;DHT22;5055;52.054;8.524;2023-11-19T14:41:52;12.40;97.00
10030;DHT22;5055;52.054;8.524;2023-11-19T14:44:24;12.40;97.00
10030;DHT22;5055;52.054;8.524;2023-11-19T14:46:52;12.40;97.00
10030;DHT22;5055;52.054;8.524;2023-11-19T14:49:21;12.50;97.00
10030;DHT22;5055;52.054;8.524;2023-11-19T14:51:50;12.50;97.00
10030;DHT22;5055;52.054;8.524;2023-11-19T14:54:19;12.50;97.00
10030;DHT22;5055;52.054;8.524;2023-11-19T14:56:48;12.40;97.00
10030;DHT22;5055;52.054;8.524;2023-11-19T14:59:17;12.40;97.00
10030;DHT22;5055;52.054;8.524;2023-11-19T15:01:45;12.30;97.00
10030;DHT22;5055;52.054;8.524;2023-11-19T15:04:13;12.30;97.00
10030;DHT22;5055;52.054;8.524;2023-11-19T15:06:42;12.20;97.00
10030;DHT22;5055;52.054;8.524;2023-11-19T15:09:11;12.20;97.00
10030;DHT22;5055;52.054;8.524;2023-11-19T15:11:43;12.20;97.00
10030;DHT22;5055;52.054;8.524;2023-11-19T15:14:14;12.20;97.00
10030;DHT22;5055;52.054;8.524;2023-11-19T15:16:54;12.10;97.00
10030;DHT22;5055;52.054;8.524;2023-11-19T15:19:39;12.20;97.00
10030;DHT22;5055;52.054;8.524;2023-11-19T15:22:07;12.20;97.00
10030;DHT22;5055;52.054;8.524;2023-11-19T15:24:38;12.20;97.00
10030;DHT22;5055;52.054;8.524;2023-11-19T15:27:08;12.20;97.00
10030;DHT22;5055;52.054;8.524;2023-11-19T15:29:42;12.10;97.00
10030;DHT22;5055;52.054;8.524;2023-11-19T15:32:11;12.20;97.00
10030;DHT22;5055;52.054;8.524;2023-11-19T15:34:39;12.10;97.00
10030;DHT22;5055;52.054;8.524;2023-11-19T15:37:08;12.10;97.00
10030;DHT22;5055;52.054;8.524;2023-11-19T15:39:39;12.10;97.00
10030;DHT22;5055;52.054;8.524;2023-11-19T15:42:08;12.10;97.00
10030;DHT22;5055;52.054;8.524;2023-11-19T15:44:38;12.10;97.00
10030;DHT22;5055;52.054;8.524;2023-11-19T15:47:08;12.00;97.00
10030;DHT22;5055;52.054;8.524;2023-11-19T15:49:39;12.00;97.00
10030;DHT22;5055;52.054;8.524;2023-11-19T15:52:08;12.00;97.00
10030;DHT22;5055;52.054;8.524;2023-11-19T15:54:36;12.00;97.00
10030;DHT22;5055;52.054;8.524;2023-11-19T15:57:05;12.00;97.00
10030;DHT22;5055;52.054;8.524;2023-11-19T15:59:38;12.00;97.00
10030;DHT22;5055;52.054;8.524;2023-11-19T16:02:08;11.90;97.00
10030;DHT22;5055;52.054;8.524;2023-11-19T16:04:37;12.00;97.00
10030;DHT22;5055;52.054;8.524;2023-11-19T16:07:06;12.00;97.00
10030;DHT22;5055;52.054;8.524;2023-11-19T16:09:35;11.90;97.00
10030;DHT22;5055;52.054;8.524;2023-11-19T16:12:05;11.90;97.00
10030;DHT22;5055;52.054;8.524;2023-11-19T16:14:33;11.80;97.00
10030;DHT22;5055;52.054;8.524;2023-11-19T16:17:01;11.70;97.00
10030;DHT22;5055;52.054;8.524;2023-11-19T16:19:31;11.60;97.00
10030;DHT22;5055;52.054;8.524;2023-11-19T16:22:02;11.50;97.00